createdAt,value
2022-11-17T00:00:39.967Z,12.90
2022-11-17T00:03:07.755Z,12.90
2022-11-17T00:05:36.709Z,12.90
2022-11-17T00:08:04.590Z,12.90
2022-11-17T00:10:32.376Z,12.90
2022-11-17T00:13:17.522Z,13.00
2022-11-17T00:15:46.626Z,12.80
2022-11-17T00:18:31.753Z,12.80
2022-11-17T00:21:17.144Z,13.00
2022-11-17T00:23:48.283Z,13.00
2022-11-17T00:26:17.015Z,12.90
2022-11-17T00:28:44.861Z,12.90
2022-11-17T00:31:32.695Z,12.90
2022-11-17T00:34:07.471Z,13.00
2022-11-17T00:36:38.274Z,13.00
2022-11-17T00:39:07.113Z,12.90
2022-11-17T00:41:34.877Z,12.90
2022-11-17T00:44:02.657Z,12.80
2022-11-17T00:46:32.316Z,12.90
2022-11-17T00:49:00.191Z,12.80
2022-11-17T00:51:28.095Z,12.90
2022-11-17T00:53:56.074Z,12.90
2022-11-17T00:56:24.038Z,13.00
2022-11-17T00:58:51.925Z,13.00
2022-11-17T01:01:20.265Z,12.90
2022-11-17T01:03:49.902Z,12.90
2022-11-17T01:06:20.245Z,13.00
2022-11-17T01:08:48.430Z,13.00
2022-11-17T01:11:18.244Z,12.90
2022-11-17T01:13:47.839Z,13.00
2022-11-17T01:16:17.848Z,13.00
2022-11-17T01:18:47.907Z,12.90
2022-11-17T01:21:19.731Z,12.90
2022-11-17T01:23:49.852Z,13.00
2022-11-17T01:26:19.765Z,13.00
2022-11-17T01:28:48.227Z,13.00
2022-11-17T01:31:17.849Z,13.10
2022-11-17T01:33:46.868Z,13.10
2022-11-17T01:36:18.023Z,13.10
2022-11-17T01:38:46.448Z,13.10
2022-11-17T01:41:17.260Z,13.10
2022-11-17T01:43:47.648Z,13.10
2022-11-17T01:46:27.439Z,13.20
2022-11-17T01:49:00.162Z,13.10
2022-11-17T01:51:32.306Z,13.20
2022-11-17T01:54:00.927Z,13.20
2022-11-17T01:56:33.073Z,13.30
2022-11-17T01:59:07.587Z,13.30
2022-11-17T02:01:55.404Z,13.30
2022-11-17T02:04:25.854Z,13.30
2022-11-17T02:07:01.602Z,13.30
2022-11-17T02:09:29.886Z,13.40
2022-11-17T02:11:59.571Z,13.30
2022-11-17T02:14:27.334Z,13.30
2022-11-17T02:16:55.114Z,13.30
2022-11-17T02:19:26.167Z,13.50
2022-11-17T02:22:19.382Z,13.40
2022-11-17T02:25:04.516Z,13.40
2022-11-17T02:27:44.580Z,13.40
2022-11-17T02:30:14.276Z,13.50
2022-11-17T02:32:50.042Z,13.60
2022-11-17T02:35:25.351Z,13.60
2022-11-17T02:38:02.805Z,13.60
2022-11-17T02:40:34.864Z,13.70
2022-11-17T02:43:26.655Z,13.70
2022-11-17T02:46:02.315Z,13.60
2022-11-17T02:48:34.111Z,13.80
2022-11-17T02:51:06.281Z,13.70
2022-11-17T02:53:36.923Z,13.60
2022-11-17T02:56:05.502Z,13.70
2022-11-17T02:58:34.646Z,13.70
2022-11-17T03:01:20.663Z,13.70
2022-11-17T03:04:05.320Z,13.70
2022-11-17T03:06:42.464Z,13.80
2022-11-17T03:09:16.580Z,13.70
2022-11-17T03:11:49.593Z,13.70
2022-11-17T03:14:28.139Z,13.80
2022-11-17T03:17:02.436Z,13.70
2022-11-17T03:19:34.937Z,13.80
2022-11-17T03:22:07.860Z,13.80
2022-11-17T03:24:39.971Z,13.80
2022-11-17T03:27:13.647Z,13.80
2022-11-17T03:29:47.243Z,13.80
2022-11-17T03:32:17.964Z,13.80
2022-11-17T03:34:52.945Z,13.80
2022-11-17T03:37:23.771Z,13.90
2022-11-17T03:39:54.664Z,13.90
2022-11-17T03:42:25.523Z,13.80
2022-11-17T03:44:58.354Z,13.80
2022-11-17T03:47:28.195Z,13.90
2022-11-17T03:50:00.154Z,13.80
2022-11-17T03:52:29.867Z,13.80
2022-11-17T03:54:58.269Z,13.80
2022-11-17T03:57:32.389Z,13.80
2022-11-17T04:00:06.007Z,13.80
2022-11-17T04:02:34.055Z,13.80
2022-11-17T04:05:07.742Z,13.70
2022-11-17T04:07:37.178Z,13.80
2022-11-17T04:10:06.159Z,13.70
2022-11-17T04:12:51.608Z,13.70
2022-11-17T04:15:38.278Z,13.60
2022-11-17T04:18:06.268Z,13.60
2022-11-17T04:20:36.812Z,13.50
2022-11-17T04:23:08.097Z,13.40
2022-11-17T04:25:53.651Z,13.40
2022-11-17T04:28:40.034Z,13.50
2022-11-17T04:31:12.212Z,13.60
2022-11-17T04:33:41.690Z,13.60
2022-11-17T04:36:10.048Z,13.70
2022-11-17T04:38:41.434Z,13.60
2022-11-17T04:41:28.886Z,13.70
2022-11-17T04:43:57.080Z,13.80
2022-11-17T04:46:27.427Z,13.90
2022-11-17T04:48:56.030Z,13.70
2022-11-17T04:51:24.434Z,13.80
2022-11-17T04:53:52.826Z,13.80
2022-11-17T04:56:21.299Z,13.80
2022-11-17T04:58:49.604Z,13.80
2022-11-17T05:01:18.776Z,13.80
2022-11-17T05:03:49.202Z,13.80
2022-11-17T05:06:19.835Z,13.90
2022-11-17T05:08:48.495Z,13.90
2022-11-17T05:11:35.446Z,13.90
2022-11-17T05:14:03.509Z,13.60
2022-11-17T05:16:48.849Z,13.70
2022-11-17T05:19:20.151Z,13.70
2022-11-17T05:21:47.934Z,13.70
2022-11-17T05:24:14.985Z,13.80
2022-11-17T05:26:44.200Z,13.70
2022-11-17T05:29:15.286Z,13.80
2022-11-17T05:31:43.456Z,13.70
2022-11-17T05:34:13.748Z,13.80
2022-11-17T05:36:42.861Z,13.80
2022-11-17T05:39:10.841Z,13.80
2022-11-17T05:41:38.620Z,13.80
2022-11-17T05:44:06.680Z,13.70
2022-11-17T05:46:34.410Z,13.70
2022-11-17T05:49:02.306Z,13.80
2022-11-17T05:51:32.014Z,13.80
2022-11-17T05:54:01.130Z,13.90
2022-11-17T05:56:34.508Z,14.00
2022-11-17T05:59:09.035Z,13.80
2022-11-17T06:01:39.414Z,14.00
2022-11-17T06:04:08.691Z,13.90
2022-11-17T06:06:38.297Z,13.90
2022-11-17T06:09:07.411Z,13.80
2022-11-17T06:11:35.215Z,13.80
2022-11-17T06:14:03.047Z,13.70
2022-11-17T06:16:33.920Z,13.60
2022-11-17T06:19:07.067Z,13.60
2022-11-17T06:22:04.415Z,13.60
2022-11-17T06:24:25.258Z,13.50
2022-11-17T06:26:53.441Z,13.50
2022-11-17T06:29:21.288Z,13.50
2022-11-17T06:31:49.096Z,13.50
2022-11-17T06:34:17.178Z,13.50
2022-11-17T06:36:47.053Z,13.50
2022-11-17T06:39:14.810Z,13.50
2022-11-17T06:41:43.872Z,13.40
2022-11-17T06:44:12.266Z,13.20
2022-11-17T06:46:42.653Z,13.30
2022-11-17T06:49:12.674Z,12.50
2022-11-17T06:51:44.899Z,13.30
2022-11-17T06:54:14.628Z,13.30
2022-11-17T06:56:45.043Z,13.30
2022-11-17T06:59:14.270Z,13.20
2022-11-17T07:01:42.081Z,13.10
2022-11-17T07:04:09.993Z,13.10
2022-11-17T07:06:37.873Z,13.20
2022-11-17T07:09:06.090Z,13.00
2022-11-17T07:11:35.872Z,12.90
2022-11-17T07:14:05.247Z,12.80
2022-11-17T07:16:33.048Z,12.90
2022-11-17T07:19:03.562Z,12.80
2022-11-17T07:21:31.661Z,12.80
2022-11-17T07:23:59.639Z,12.80
2022-11-17T07:26:27.528Z,12.90
2022-11-17T07:28:55.407Z,12.90
2022-11-17T07:31:24.607Z,13.00
2022-11-17T07:33:54.455Z,13.00
2022-11-17T07:36:22.388Z,12.90
2022-11-17T07:38:50.255Z,12.90
2022-11-17T07:41:18.074Z,12.80
2022-11-17T07:43:45.882Z,12.90
2022-11-17T07:46:15.834Z,12.90
2022-11-17T07:48:45.207Z,13.00
2022-11-17T07:51:14.043Z,12.80
2022-11-17T07:53:41.868Z,12.80
2022-11-17T07:56:12.164Z,12.70
2022-11-17T07:58:41.090Z,12.80
2022-11-17T08:01:10.354Z,12.80
2022-11-17T08:03:38.307Z,13.30
2022-11-17T08:06:09.356Z,12.80
2022-11-17T08:08:38.204Z,12.80
2022-11-17T08:11:07.401Z,12.80
2022-11-17T08:13:35.398Z,12.80
2022-11-17T08:16:03.541Z,12.90
2022-11-17T08:18:32.272Z,12.80
2022-11-17T08:21:04.432Z,13.00
2022-11-17T08:23:34.205Z,12.70
2022-11-17T08:26:03.528Z,12.80
2022-11-17T08:28:32.069Z,12.90
2022-11-17T08:31:01.944Z,12.70
2022-11-17T08:33:29.809Z,12.70
2022-11-17T08:35:58.378Z,12.70
2022-11-17T08:38:29.000Z,12.80
2022-11-17T08:40:58.366Z,12.60
2022-11-17T08:43:26.564Z,12.70
2022-11-17T08:45:54.562Z,12.80
2022-11-17T08:48:22.798Z,12.70
2022-11-17T08:50:51.161Z,12.70
2022-11-17T08:53:20.974Z,12.70
2022-11-17T08:55:49.085Z,12.80
2022-11-17T08:58:18.605Z,12.70
2022-11-17T09:00:47.333Z,12.70
2022-11-17T09:03:15.814Z,12.70
2022-11-17T09:05:46.984Z,12.70
2022-11-17T09:11:05.680Z,12.60
2022-11-17T09:13:35.334Z,12.60
2022-11-17T09:16:03.862Z,12.70
2022-11-17T09:18:31.869Z,12.70
2022-11-17T09:21:03.515Z,12.80
2022-11-17T09:23:32.456Z,12.70
2022-11-17T09:26:04.920Z,12.70
2022-11-17T09:28:35.399Z,12.70
2022-11-17T09:31:07.766Z,13.10
2022-11-17T09:33:36.248Z,12.80
2022-11-17T09:36:11.886Z,12.90
2022-11-17T09:38:42.038Z,12.90
2022-11-17T09:41:24.258Z,12.90
2022-11-17T09:44:03.399Z,12.40
2022-11-17T09:46:43.944Z,12.60
2022-11-17T09:49:18.495Z,12.60
2022-11-17T09:51:50.275Z,12.10
2022-11-17T09:54:41.831Z,12.60
2022-11-17T09:57:22.564Z,12.60
2022-11-17T10:00:14.503Z,12.80
2022-11-17T10:02:43.952Z,13.00
2022-11-17T10:05:16.591Z,12.80
2022-11-17T10:07:51.360Z,12.80
2022-11-17T10:10:30.591Z,12.80
2022-11-17T10:12:59.589Z,12.90
2022-11-17T10:15:31.716Z,12.90
2022-11-17T10:17:59.533Z,12.90
2022-11-17T10:20:27.389Z,12.80
2022-11-17T10:22:56.953Z,12.80
2022-11-17T10:25:37.861Z,12.80
2022-11-17T10:28:08.287Z,12.80
2022-11-17T10:30:37.486Z,12.80
2022-11-17T10:33:05.502Z,12.80
2022-11-17T10:35:35.527Z,12.80
2022-11-17T10:38:06.699Z,12.80
2022-11-17T10:40:49.209Z,12.70
2022-11-17T10:43:25.623Z,12.50
2022-11-17T10:45:57.807Z,12.30
2022-11-17T10:48:28.866Z,12.40
2022-11-17T10:50:58.500Z,12.50
2022-11-17T10:53:30.534Z,12.50
2022-11-17T10:56:03.422Z,12.50
2022-11-17T10:58:32.921Z,12.60
2022-11-17T11:01:04.811Z,12.60
2022-11-17T11:03:34.864Z,12.60
2022-11-17T11:06:05.713Z,12.70
2022-11-17T11:08:45.761Z,12.60
2022-11-17T11:11:21.493Z,12.70
2022-11-17T11:13:56.397Z,12.60
2022-11-17T11:16:26.932Z,12.50
2022-11-17T11:18:54.782Z,12.50
2022-11-17T11:21:37.833Z,12.60
2022-11-17T11:24:14.322Z,12.50
2022-11-17T11:26:56.070Z,12.80
2022-11-17T11:29:31.495Z,12.60
2022-11-17T11:32:17.653Z,12.60
2022-11-17T11:35:00.725Z,12.80
2022-11-17T11:37:38.148Z,12.60
2022-11-17T11:40:15.966Z,12.60
2022-11-17T11:42:53.770Z,12.70
2022-11-17T11:45:31.509Z,12.60
2022-11-17T11:48:19.016Z,12.70
2022-11-17T11:50:56.142Z,12.80
2022-11-17T11:53:29.764Z,12.80
2022-11-17T11:56:09.971Z,12.90
2022-11-17T11:58:41.422Z,12.80
2022-11-17T12:01:12.077Z,12.80
2022-11-17T12:03:48.788Z,12.90
2022-11-17T12:06:43.339Z,12.90
2022-11-17T12:09:47.562Z,13.00
2022-11-17T12:12:18.428Z,12.80
2022-11-17T12:15:09.662Z,12.90
2022-11-17T12:17:37.999Z,12.90
2022-11-17T12:20:51.621Z,12.90
2022-11-17T12:23:27.643Z,12.80
2022-11-17T12:25:56.996Z,12.80
2022-11-17T12:28:38.043Z,12.80
2022-11-17T12:31:10.422Z,12.90
2022-11-17T12:34:19.620Z,12.90
2022-11-17T12:37:27.905Z,12.70
2022-11-17T12:40:01.435Z,12.70
2022-11-17T12:42:30.508Z,12.70
2022-11-17T12:45:06.006Z,12.70
2022-11-17T12:47:35.649Z,12.80
2022-11-17T12:50:27.343Z,12.70
2022-11-17T12:53:22.141Z,12.70
2022-11-17T12:56:07.624Z,12.60
2022-11-17T12:58:43.784Z,12.60
2022-11-17T13:01:18.488Z,12.60
2022-11-17T13:03:53.484Z,12.60
2022-11-17T13:06:35.474Z,12.70
2022-11-17T13:09:07.431Z,12.70
2022-11-17T13:11:36.446Z,12.80
2022-11-17T13:14:12.120Z,12.90
2022-11-17T13:16:46.483Z,13.00
2022-11-17T13:19:39.016Z,13.00
2022-11-17T13:22:15.124Z,12.90
2022-11-17T13:24:46.084Z,12.90
2022-11-17T13:27:23.929Z,12.80
2022-11-17T13:29:52.048Z,12.80
2022-11-17T13:32:23.093Z,12.90
2022-11-17T13:34:53.776Z,13.00
2022-11-17T13:37:23.497Z,13.10
2022-11-17T13:39:57.545Z,13.10
2022-11-17T13:42:27.770Z,12.90
2022-11-17T13:44:57.354Z,12.90
2022-11-17T13:47:41.428Z,12.90
2022-11-17T13:50:34.453Z,13.00
2022-11-17T13:53:05.017Z,13.00
2022-11-17T13:55:35.201Z,12.90
2022-11-17T13:58:05.283Z,12.90
2022-11-17T14:00:34.236Z,13.00
2022-11-17T14:03:04.009Z,13.10
2022-11-17T14:05:32.929Z,13.10
2022-11-17T14:08:13.989Z,13.10
2022-11-17T14:10:43.159Z,13.20
2022-11-17T14:13:22.759Z,13.20
2022-11-17T14:15:57.197Z,13.10
2022-11-17T14:18:29.557Z,13.20
2022-11-17T14:21:13.464Z,13.40
2022-11-17T14:23:42.057Z,13.20
2022-11-17T14:26:21.310Z,13.20
2022-11-17T14:28:50.080Z,13.10
2022-11-17T14:31:18.262Z,12.90
2022-11-17T14:33:46.247Z,12.90
2022-11-17T14:36:16.579Z,12.90
2022-11-17T14:38:45.632Z,13.00
2022-11-17T14:41:15.945Z,13.00
2022-11-17T14:43:45.499Z,13.00
2022-11-17T14:46:20.073Z,12.90
2022-11-17T14:48:48.116Z,13.00
2022-11-17T14:51:16.169Z,13.10
2022-11-17T14:53:44.473Z,13.10
2022-11-17T14:56:15.226Z,13.10
2022-11-17T14:58:43.191Z,13.10
2022-11-17T15:01:16.553Z,13.10
2022-11-17T15:03:44.589Z,13.10
2022-11-17T15:06:19.375Z,13.10
2022-11-17T15:08:48.536Z,13.00
2022-11-17T15:11:18.547Z,13.00
2022-11-17T15:13:46.441Z,13.00
2022-11-17T15:16:15.747Z,13.20
2022-11-17T15:18:46.525Z,13.20
2022-11-17T15:21:15.961Z,13.30
2022-11-17T15:23:44.862Z,13.20
2022-11-17T15:26:14.995Z,13.20
2022-11-17T15:28:43.432Z,13.10
2022-11-17T15:31:13.363Z,13.30
2022-11-17T15:33:43.561Z,13.30
2022-11-17T15:36:13.065Z,13.30
2022-11-17T15:38:41.622Z,13.20
2022-11-17T15:41:10.884Z,13.30
2022-11-17T15:43:40.479Z,13.30
2022-11-17T15:46:10.301Z,13.40
2022-11-17T15:48:42.153Z,13.30
2022-11-17T15:51:13.733Z,13.40
2022-11-17T15:53:42.587Z,13.40
2022-11-17T15:56:12.306Z,13.40
2022-11-17T15:58:41.389Z,13.40
2022-11-17T16:01:14.297Z,13.30
2022-11-17T16:03:44.076Z,13.30
2022-11-17T16:06:13.759Z,13.50
2022-11-17T16:08:42.013Z,13.50
2022-11-17T16:11:11.093Z,13.50
2022-11-17T16:13:39.014Z,13.60
2022-11-17T16:16:08.378Z,13.50
2022-11-17T16:18:38.439Z,13.50
2022-11-17T16:21:07.736Z,13.50
2022-11-17T16:23:40.759Z,13.40
2022-11-17T16:26:09.431Z,13.50
2022-11-17T16:28:37.709Z,13.60
2022-11-17T16:31:17.134Z,13.60
2022-11-17T16:33:49.124Z,13.60
2022-11-17T16:36:17.277Z,13.60
2022-11-17T16:39:13.376Z,13.60
2022-11-17T16:41:36.308Z,13.60
2022-11-17T16:44:08.982Z,13.50
2022-11-17T16:46:37.205Z,13.60
2022-11-17T16:49:06.526Z,13.60
2022-11-17T16:51:34.735Z,13.50
2022-11-17T16:54:06.238Z,13.60
2022-11-17T16:56:35.493Z,13.60
2022-11-17T16:59:03.304Z,13.50
2022-11-17T17:01:33.093Z,13.50
2022-11-17T17:04:02.830Z,13.60
2022-11-17T17:06:31.215Z,13.60
2022-11-17T17:09:00.720Z,13.60
2022-11-17T17:11:31.902Z,13.70
2022-11-17T17:14:00.240Z,13.50
2022-11-17T17:16:28.308Z,13.60
2022-11-17T17:18:56.993Z,13.70
2022-11-17T17:21:24.778Z,13.60
2022-11-17T17:23:52.808Z,13.70
2022-11-17T17:26:22.498Z,13.60
2022-11-17T17:28:54.802Z,13.70
2022-11-17T17:31:24.188Z,13.60
2022-11-17T17:33:52.653Z,13.60
2022-11-17T17:36:22.738Z,13.50
2022-11-17T17:38:55.548Z,13.60
2022-11-17T17:41:25.772Z,13.50
2022-11-17T17:43:59.045Z,13.60
2022-11-17T17:46:29.569Z,13.50
2022-11-17T17:48:57.657Z,13.60
2022-11-17T17:51:26.870Z,13.60
2022-11-17T17:53:57.789Z,13.70
2022-11-17T17:56:26.277Z,13.60
2022-11-17T17:58:56.945Z,13.70
2022-11-17T18:01:26.409Z,13.60
2022-11-17T18:04:00.883Z,13.50
2022-11-17T18:06:28.706Z,13.50
2022-11-17T18:08:56.905Z,13.60
2022-11-17T18:11:25.294Z,13.60
2022-11-17T18:13:54.041Z,13.70
2022-11-17T18:16:24.767Z,13.70
2022-11-17T18:18:57.274Z,13.60
2022-11-17T18:21:25.334Z,13.70
2022-11-17T18:23:53.888Z,13.50
2022-11-17T18:26:22.960Z,13.60
2022-11-17T18:28:53.007Z,13.60
2022-11-17T18:31:21.596Z,13.70
2022-11-17T18:33:53.441Z,13.60
2022-11-17T18:36:22.124Z,13.60
2022-11-17T18:38:50.993Z,13.70
2022-11-17T18:41:19.988Z,13.60
2022-11-17T18:43:48.085Z,13.60
2022-11-17T18:46:18.346Z,13.60
2022-11-17T18:48:48.926Z,13.60
2022-11-17T18:51:20.949Z,13.50
2022-11-17T18:53:49.296Z,13.40
2022-11-17T18:56:18.714Z,13.50
2022-11-17T18:58:46.724Z,13.50
2022-11-17T19:01:17.078Z,13.50
2022-11-17T19:03:46.732Z,13.60
2022-11-17T19:06:16.399Z,13.60
2022-11-17T19:08:46.017Z,13.50
2022-11-17T19:11:14.523Z,13.60
2022-11-17T19:13:44.224Z,13.50
2022-11-17T19:16:14.568Z,13.20
2022-11-17T19:18:43.081Z,13.30
2022-11-17T19:21:13.252Z,13.40
2022-11-17T19:23:49.549Z,13.40
2022-11-17T19:26:21.525Z,13.40
2022-11-17T19:28:49.480Z,13.30
2022-11-17T19:31:19.061Z,13.30
2022-11-17T19:33:48.669Z,13.40
2022-11-17T19:36:18.527Z,14.00
2022-11-17T19:38:49.776Z,13.30
2022-11-17T19:41:19.332Z,13.20
2022-11-17T19:43:48.847Z,13.30
2022-11-17T19:46:18.365Z,13.30
2022-11-17T19:48:46.465Z,13.20
2022-11-17T19:51:17.214Z,13.20
2022-11-17T19:53:45.538Z,13.20
2022-11-17T19:56:13.727Z,13.20
2022-11-17T19:58:41.982Z,13.10
2022-11-17T20:01:13.185Z,13.20
2022-11-17T20:03:41.680Z,13.10
2022-11-17T20:06:11.190Z,13.00
2022-11-17T20:08:39.558Z,13.20
2022-11-17T20:11:09.191Z,13.30
2022-11-17T20:13:38.189Z,13.40
2022-11-17T20:16:11.975Z,13.20
2022-11-17T20:18:41.957Z,13.20
2022-11-17T20:21:10.534Z,13.10
2022-11-17T20:23:39.509Z,13.10
2022-11-17T20:26:08.854Z,13.10
2022-11-17T20:28:38.182Z,13.00
2022-11-17T20:31:10.376Z,13.00
2022-11-17T20:33:38.651Z,13.00
2022-11-17T20:36:09.576Z,12.90
2022-11-17T20:38:37.556Z,13.00
2022-11-17T20:41:06.334Z,13.00
2022-11-17T20:43:35.478Z,13.10
2022-11-17T20:46:03.851Z,13.10
2022-11-17T20:48:33.987Z,13.10
2022-11-17T20:51:03.107Z,13.10
2022-11-17T20:53:32.822Z,13.20
2022-11-17T20:56:02.303Z,13.10
2022-11-17T20:58:30.557Z,13.00
2022-11-17T21:00:58.424Z,13.10
2022-11-17T21:03:27.528Z,13.10
2022-11-17T21:05:58.735Z,12.90
2022-11-17T21:08:28.256Z,13.00
2022-11-17T21:10:58.198Z,13.00
2022-11-17T21:13:26.760Z,13.00
2022-11-17T21:16:05.268Z,12.90
2022-11-17T21:18:33.480Z,13.00
2022-11-17T21:21:04.380Z,13.00
2022-11-17T21:23:32.571Z,12.90
2022-11-17T21:26:05.447Z,12.90
2022-11-17T21:28:33.263Z,12.90
2022-11-17T21:31:07.398Z,12.90
2022-11-17T21:33:35.437Z,12.90
2022-11-17T21:36:03.469Z,12.90
2022-11-17T21:38:31.304Z,12.90
2022-11-17T21:41:03.671Z,12.80
2022-11-17T21:43:32.964Z,12.90
2022-11-17T21:46:04.035Z,12.80
2022-11-17T21:48:32.023Z,12.80
2022-11-17T21:50:59.993Z,12.90
2022-11-17T21:53:28.342Z,12.80
2022-11-17T21:56:01.419Z,12.80
2022-11-17T21:58:29.289Z,12.80
2022-11-17T22:00:59.151Z,13.00
2022-11-17T22:03:27.511Z,13.00
2022-11-17T22:06:00.948Z,12.90
2022-11-17T22:08:30.122Z,13.00
2022-11-17T22:10:57.958Z,12.90
2022-11-17T22:13:25.781Z,13.00
2022-11-17T22:15:53.870Z,12.80
2022-11-17T22:18:23.032Z,12.80
2022-11-17T22:20:52.173Z,12.90
2022-11-17T22:23:19.989Z,12.90
2022-11-17T22:25:54.257Z,12.90
2022-11-17T22:28:22.288Z,12.90
2022-11-17T22:30:50.418Z,12.90
2022-11-17T22:33:18.529Z,12.80
2022-11-17T22:35:48.024Z,12.80
2022-11-17T22:40:46.550Z,12.80
2022-11-17T22:43:15.443Z,12.80
2022-11-17T22:45:43.817Z,12.70
2022-11-17T22:48:11.605Z,12.70
2022-11-17T22:50:39.408Z,12.80
2022-11-17T22:53:08.621Z,12.90
2022-11-17T22:55:36.580Z,12.50
2022-11-17T22:58:04.401Z,12.80
2022-11-17T23:00:32.419Z,12.80
2022-11-17T23:03:00.350Z,12.80
2022-11-17T23:05:28.261Z,12.80
2022-11-17T23:07:56.098Z,12.80
2022-11-17T23:10:25.301Z,12.70
2022-11-17T23:12:53.241Z,12.70
2022-11-17T23:15:21.079Z,12.70
2022-11-17T23:17:49.711Z,12.70
2022-11-17T23:20:18.054Z,12.60
2022-11-17T23:22:45.880Z,12.60
2022-11-17T23:25:13.686Z,12.70
2022-11-17T23:27:42.873Z,12.60
2022-11-17T23:30:11.735Z,12.60
2022-11-17T23:32:39.566Z,12.60
2022-11-17T23:35:08.368Z,12.70
2022-11-17T23:37:36.169Z,12.60
2022-11-17T23:40:04.285Z,12.60
2022-11-17T23:42:32.859Z,12.60
2022-11-17T23:45:02.601Z,12.60
2022-11-17T23:47:30.371Z,12.70
2022-11-17T23:49:58.268Z,12.70
2022-11-17T23:52:26.117Z,12.60
2022-11-17T23:54:53.965Z,12.50
2022-11-17T23:57:21.793Z,12.60
2022-11-17T23:59:49.552Z,12.60
